Time;durP1;ratioP1;P1;durP2;ratioP2;P2;SDS_P1;SDS_P2;PMS_P1;PMS_P2;Temp;Humidity;BMP_temperature;BMP_pressure;BME280_temperature;BME280_humidity;BME280_pressure;Samples;Min_cycle;Max_cycle;Signal;HPM_P1;HPM_P2
2022/07/21 00:02:34;;;;;;;3.37;1.90;;;;;;;23.97;38.99;99946.34;4493541;31;34973;-82
2022/07/21 00:05:21;;;;;;;8.13;2.33;;;;;;;24.01;38.54;99941.56;4482254;31;35502;-82
2022/07/21 00:08:07;;;;;;;10.50;3.12;;;;;;;24.26;37.78;99940.84;4493117;31;34570;-81
2022/07/21 00:10:54;;;;;;;7.25;1.83;;;;;;;24.20;37.73;99944.03;4496410;31;35244;-82
2022/07/21 00:13:41;;;;;;;3.45;1.80;;;;;;;24.12;37.96;99953.59;4493725;31;34204;-82
2022/07/21 00:16:27;;;;;;;8.43;2.10;;;;;;;24.09;38.55;99953.59;4492788;31;34741;-81
2022/07/21 00:19:15;;;;;;;4.75;1.95;;;;;;;24.02;38.67;99943.16;4497645;31;34789;-82
2022/07/21 00:22:01;;;;;;;3.30;1.83;;;;;;;23.91;38.92;99950.75;4483769;31;34787;-82
2022/07/21 00:24:48;;;;;;;5.07;1.98;;;;;;;23.92;39.49;99949.53;4484092;31;33777;-82
2022/07/21 00:27:34;;;;;;;3.67;2.20;;;;;;;23.80;39.28;99942.28;4497659;31;35317;-82
2022/07/21 00:30:21;;;;;;;4.53;1.90;;;;;;;23.54;40.26;99951.75;4496277;31;34534;-82
2022/07/21 00:33:08;;;;;;;4.07;2.45;;;;;;;23.67;40.28;99950.19;4474323;31;34947;-81
2022/07/21 00:35:55;;;;;;;6.60;3.03;;;;;;;23.57;40.63;99948.16;4484231;31;34465;-81
2022/07/21 00:38:42;;;;;;;4.18;1.70;;;;;;;23.55;40.01;99953.34;4494228;31;36099;-81
2022/07/21 00:41:34;;;;;;;6.68;1.90;;;;;;;23.28;40.34;99953.59;4497050;31;34561;-81
2022/07/21 00:44:25;;;;;;;5.45;1.70;;;;;;;23.24;39.92;99944.34;4495190;31;34646;-82
2022/07/21 00:47:11;;;;;;;5.30;2.03;;;;;;;23.48;39.62;99944.88;4495826;31;33823;-82
2022/07/21 00:50:00;;;;;;;6.28;2.15;;;;;;;23.48;39.30;99947.69;4482016;31;35485;-82
2022/07/21 00:52:47;;;;;;;5.87;1.83;;;;;;;23.43;40.00;99959.25;4484019;31;35008;-82
2022/07/21 00:55:34;;;;;;;4.50;1.75;;;;;;;23.51;39.75;99956.13;4495372;31;35446;-82
2022/07/21 00:58:22;;;;;;;3.15;1.80;;;;;;;23.57;39.46;99951.75;4493846;31;34144;-82
2022/07/21 01:01:08;;;;;;;5.40;1.90;;;;;;;23.51;39.92;99946.94;4494024;31;37311;-82
2022/07/21 01:03:55;;;;;;;4.65;2.12;;;;;;;23.42;40.22;99938.84;4493622;31;35038;-82
2022/07/21 01:06:42;;;;;;;8.27;2.03;;;;;;;23.44;40.63;99946.88;4482792;31;34321;-82
2022/07/21 01:09:28;;;;;;;2.58;1.50;;;;;;;23.04;41.87;99945.81;4492654;31;34928;-82
2022/07/21 01:12:15;;;;;;;3.42;2.10;;;;;;;22.16;45.11;99953.72;4485460;31;35584;-82
2022/07/21 01:15:03;;;;;;;7.32;2.03;;;;;;;22.48;44.16;99958.06;4484889;31;35390;-81
2022/07/21 01:17:50;;;;;;;4.12;1.50;;;;;;;22.58;43.90;99966.56;4486380;31;33368;-81
2022/07/21 01:20:38;;;;;;;4.40;1.80;;;;;;;22.44;44.34;99958.84;4481131;31;34026;-82
2022/07/21 01:23:26;;;;;;;4.68;2.00;;;;;;;22.58;45.35;99960.16;4471690;31;34337;-82
2022/07/21 01:26:12;;;;;;;4.90;2.20;;;;;;;22.83;43.52;99958.41;4485467;31;34903;-81
2022/07/21 01:28:59;;;;;;;5.95;2.00;;;;;;;22.96;42.75;99946.94;4483621;31;35605;-82
2022/07/21 01:31:47;;;;;;;4.70;1.87;;;;;;;22.84;43.04;99948.81;4496059;31;35280;-81
2022/07/21 01:34:35;;;;;;;5.90;2.00;;;;;;;22.90;42.98;99947.28;4494598;31;34424;-81
2022/07/21 01:37:24;;;;;;;3.55;2.03;;;;;;;23.03;42.89;99949.81;4491401;31;35584;-81
2022/07/21 01:43:19;;;;;;;4.32;1.95;;;;;;;22.83;43.23;99946.44;4484953;31;34077;-82
2022/07/21 01:46:11;;;;;;;4.72;1.75;;;;;;;22.89;43.76;99956.06;4483830;31;34669;-82
2022/07/21 01:48:58;;;;;;;4.10;1.73;;;;;;;22.93;44.14;99947.69;4483937;31;34897;-81
2022/07/21 01:51:46;;;;;;;5.75;2.20;;;;;;;22.08;46.55;99951.22;4482522;31;34237;-82
2022/07/21 01:54:32;;;;;;;4.00;1.98;;;;;;;22.38;45.83;99948.41;4493694;31;34133;-82
2022/07/21 01:57:21;;;;;;;3.20;1.98;;;;;;;22.28;46.34;99949.09;4495252;31;35262;-81
2022/07/21 02:00:09;;;;;;;5.07;1.83;;;;;;;22.65;45.31;99957.44;4494648;31;36177;-82
2022/07/21 02:02:56;;;;;;;4.40;1.90;;;;;;;22.61;44.59;99948.22;4492974;31;33940;-82
2022/07/21 02:05:44;;;;;;;5.22;2.03;;;;;;;22.34;45.26;99948.37;4491845;31;34185;-82
2022/07/21 02:08:31;;;;;;;4.50;1.87;;;;;;;22.22;46.06;99959.78;4483126;31;34031;-82
2022/07/21 02:11:18;;;;;;;5.15;1.80;;;;;;;22.59;45.08;99953.38;4482181;31;35184;-82
2022/07/21 02:14:05;;;;;;;6.35;2.45;;;;;;;22.26;45.66;99952.28;4494696;31;35658;-82
2022/07/21 02:16:51;;;;;;;4.65;2.00;;;;;;;22.15;45.52;99942.97;4484073;31;33841;-82
2022/07/21 02:19:39;;;;;;;4.20;1.67;;;;;;;22.32;45.38;99949.94;4481236;31;34705;-82
2022/07/21 02:22:25;;;;;;;4.72;1.90;;;;;;;22.29;45.36;99962.69;4492443;31;34945;-81
2022/07/21 02:25:12;;;;;;;5.25;1.87;;;;;;;22.30;45.53;99953.09;4494550;31;34411;-82
2022/07/21 02:27:58;;;;;;;4.70;2.15;;;;;;;22.19;45.78;99963.34;4482467;31;35422;-81
2022/07/21 02:30:45;;;;;;;5.05;1.87;;;;;;;22.20;45.22;99964.97;4483367;31;34597;-81
2022/07/21 02:33:33;;;;;;;5.47;2.08;;;;;;;22.22;45.06;99962.59;4495027;31;34727;-81
2022/07/21 02:36:19;;;;;;;4.20;2.00;;;;;;;22.18;44.99;99961.75;4482291;31;34297;-81
2022/07/21 02:39:06;;;;;;;4.70;1.80;;;;;;;22.02;45.46;99957.16;4484061;31;35024;-81
2022/07/21 02:41:53;;;;;;;3.40;2.10;;;;;;;22.09;45.30;99964.81;4486778;31;34654;-81
2022/07/21 02:44:40;;;;;;;4.50;1.92;;;;;;;21.96;45.44;99964.25;4484430;31;35276;-82
2022/07/21 02:47:27;;;;;;;5.30;1.58;;;;;;;21.95;45.67;99965.44;4495578;31;34529;-81
2022/07/21 02:50:13;;;;;;;5.05;1.70;;;;;;;22.16;45.16;99964.88;4494618;31;33730;-82
2022/07/21 02:53:02;;;;;;;3.83;1.80;;;;;;;21.87;45.51;99960.97;4485015;31;35562;-82
2022/07/21 02:55:52;;;;;;;3.87;1.83;;;;;;;21.95;45.44;99965.44;4494866;31;35294;-81
2022/07/21 02:58:39;;;;;;;8.02;2.40;;;;;;;22.12;44.74;99955.69;4481173;31;34199;-82
2022/07/21 03:01:26;;;;;;;6.03;1.80;;;;;;;22.06;44.94;99957.22;4472814;31;32731;-82
2022/07/21 03:04:13;;;;;;;3.70;1.95;;;;;;;22.34;44.65;99959.53;4493319;31;34728;-82
2022/07/21 03:07:02;;;;;;;4.15;2.10;;;;;;;22.11;45.27;99967.22;4494077;31;34998;-82
2022/07/21 03:09:48;;;;;;;3.90;2.03;;;;;;;22.04;44.84;99961.56;4494971;31;34597;-82
2022/07/21 03:12:36;;;;;;;8.43;2.30;;;;;;;22.06;45.19;99960.00;4495203;31;34205;-82
2022/07/21 03:15:22;;;;;;;3.03;2.20;;;;;;;21.87;46.42;99974.91;4493892;31;34563;-82
2022/07/21 03:18:09;;;;;;;6.00;2.03;;;;;;;22.47;45.03;99967.62;4494125;31;36064;-82
2022/07/21 03:20:57;;;;;;;4.03;2.00;;;;;;;22.23;45.42;99964.22;4490879;31;34389;-82
2022/07/21 03:23:45;;;;;;;7.03;2.15;;;;;;;22.14;46.89;99966.44;4481633;31;36037;-83
2022/07/21 03:26:35;;;;;;;4.12;2.10;;;;;;;22.18;46.36;99964.53;4490385;31;33492;-83
2022/07/21 03:29:22;;;;;;;4.65;1.90;;;;;;;22.25;45.81;99967.41;4490606;31;35958;-82
2022/07/21 03:32:09;;;;;;;6.15;1.92;;;;;;;22.32;45.87;99963.91;4481993;31;35432;-82
2022/07/21 03:34:56;;;;;;;4.90;2.20;;;;;;;22.06;46.19;99975.91;4495020;31;34183;-82
2022/07/21 03:37:57;;;;;;;3.62;1.95;;;;;;;21.78;47.31;99972.41;4481418;31;34702;-81
2022/07/21 03:40:44;;;;;;;4.53;2.12;;;;;;;22.25;45.42;99961.81;4483046;31;36136;-81
2022/07/21 03:43:31;;;;;;;6.90;2.12;;;;;;;22.00;45.35;99967.09;4482587;31;35410;-78
2022/07/21 03:46:17;;;;;;;3.15;2.00;;;;;;;22.34;44.40;99961.50;4493634;31;34117;-78
2022/07/21 03:49:04;;;;;;;3.72;2.10;;;;;;;22.68;44.58;99973.41;4494773;31;34972;-79
2022/07/21 03:51:52;;;;;;;7.45;1.90;;;;;;;22.18;45.66;99972.91;4481278;31;35926;-78
2022/07/21 03:54:38;;;;;;;3.67;1.92;;;;;;;22.18;46.05;99973.72;4493887;31;34395;-79
2022/07/21 03:57:25;;;;;;;3.95;2.15;;;;;;;21.84;47.86;99975.66;4493795;31;34211;-79
2022/07/21 04:00:22;;;;;;;8.48;2.65;;;;;;;22.26;46.50;99974.59;4495302;31;34642;-79
2022/07/21 04:03:10;;;;;;;4.43;2.05;;;;;;;22.12;46.09;99985.56;4482806;31;34893;-78
2022/07/21 04:05:57;;;;;;;3.72;2.25;;;;;;;22.64;44.75;99983.75;4492886;31;34059;-78
2022/07/21 04:08:44;;;;;;;5.07;2.15;;;;;;;22.42;45.74;99977.16;4466193;31;33830;-78
2022/07/21 04:11:32;;;;;;;6.03;2.17;;;;;;;22.59;45.09;99984.09;4482064;31;35107;-78
2022/07/21 04:14:19;;;;;;;4.72;1.95;;;;;;;22.11;45.85;99983.94;4492622;31;35012;-78
2022/07/21 04:17:06;;;;;;;8.93;2.40;;;;;;;22.48;45.64;99988.78;4493549;31;35608;-78
2022/07/21 04:19:54;;;;;;;7.25;2.20;;;;;;;22.11;47.31;99995.13;4492583;31;33954;-78
2022/07/21 04:22:44;;;;;;;5.78;2.70;;;;;;;22.83;45.95;99986.34;4472528;31;35612;-78
2022/07/21 04:25:32;;;;;;;5.50;3.28;;;;;;;22.75;46.74;99979.06;4493908;31;34880;-78
2022/07/21 04:28:18;;;;;;;4.62;2.30;;;;;;;22.78;46.24;99983.91;4492669;31;34253;-78
2022/07/21 04:31:06;;;;;;;4.85;2.00;;;;;;;22.85;45.88;99978.37;4491916;31;34299;-78
2022/07/21 04:33:54;;;;;;;5.22;1.92;;;;;;;23.17;45.33;99977.03;4480674;31;35608;-78
2022/07/21 04:36:47;;;;;;;6.30;2.50;;;;;;;22.96;45.82;99988.84;4481657;31;34924;-78
2022/07/21 04:39:33;;;;;;;5.87;2.20;;;;;;;22.99;48.00;99988.09;4492959;31;35557;-77
2022/07/21 04:42:19;;;;;;;5.90;2.40;;;;;;;23.28;47.50;99989.94;4492423;31;35369;-77
2022/07/21 04:45:07;;;;;;;5.25;2.03;;;;;;;23.32;47.13;99985.16;4480702;31;34682;-76
2022/07/21 04:47:55;;;;;;;5.60;2.17;;;;;;;22.62;48.35;99992.50;4494637;31;34943;-76
2022/07/21 04:50:41;;;;;;;5.90;2.30;;;;;;;23.00;47.36;99978.53;4481376;31;34622;-77
2022/07/21 04:53:28;;;;;;;8.55;2.40;;;;;;;22.99;48.05;99982.50;4479758;31;34202;-76
2022/07/21 04:56:15;;;;;;;7.65;2.08;;;;;;;23.38;46.36;99984.78;4483078;31;35692;-76
2022/07/21 04:59:02;;;;;;;6.62;3.10;;;;;;;23.53;46.78;99994.84;4492247;31;34743;-77
2022/07/21 05:01:48;;;;;;;5.18;2.20;;;;;;;23.21;47.91;99995.44;4493713;31;34612;-77
2022/07/21 05:04:36;;;;;;;8.00;2.35;;;;;;;23.57;46.47;99990.09;4492376;31;34377;-76
2022/07/21 05:07:24;;;;;;;6.78;2.40;;;;;;;23.74;45.82;99995.03;4482564;31;34549;-82
2022/07/21 05:10:18;;;;;;;5.18;2.83;;;;;;;24.05;45.40;99995.56;4487331;31;35070;-82
2022/07/21 05:13:09;;;;;;;6.53;3.20;;;;;;;24.12;45.26;99989.97;4496394;31;34765;-82
2022/07/21 05:15:57;;;;;;;5.75;2.90;;;;;;;24.39;46.16;99995.25;4483186;31;33873;-82
2022/07/21 05:18:53;;;;;;;10.45;3.17;;;;;;;24.43;46.50;99984.91;4495130;31;34651;-83
2022/07/21 05:21:41;;;;;;;6.75;3.10;;;;;;;24.63;46.22;99988.16;4483573;31;36008;-81
2022/07/21 05:24:28;;;;;;;14.00;3.17;;;;;;;24.16;47.29;99992.78;4489611;31;34481;-81
2022/07/21 05:27:15;;;;;;;11.60;2.90;;;;;;;24.27;46.93;99998.44;4497191;31;33081;-82
2022/07/21 05:30:03;;;;;;;7.68;2.83;;;;;;;24.50;45.56;100007.31;4481919;31;33672;-82
2022/07/21 05:32:50;;;;;;;8.30;3.10;;;;;;;24.66;45.56;100004.16;4484387;31;34238;-82
2022/07/21 05:35:37;;;;;;;5.80;2.65;;;;;;;24.96;45.29;100001.00;4497092;31;33495;-82
2022/07/21 05:38:25;;;;;;;7.82;2.78;;;;;;;25.11;44.72;100008.19;4493425;31;34173;-81
2022/07/21 05:41:14;;;;;;;11.55;3.42;;;;;;;25.48;45.55;100007.00;4491403;31;35652;-82
2022/07/21 05:44:00;;;;;;;13.13;3.37;;;;;;;25.72;44.25;100022.16;4484263;31;34914;-82
2022/07/21 05:46:48;;;;;;;7.80;2.90;;;;;;;25.87;43.24;100019.34;4492410;31;34167;-83
2022/07/21 05:49:40;;;;;;;11.12;3.25;;;;;;;25.64;42.06;100019.78;4494708;31;33807;-83
2022/07/21 05:52:27;;;;;;;8.95;3.40;;;;;;;26.23;42.95;100015.19;4495636;31;34139;-81
2022/07/21 05:55:15;;;;;;;11.63;5.05;;;;;;;26.53;44.36;100016.69;4496068;31;35725;-81
2022/07/21 05:58:04;;;;;;;9.25;3.87;;;;;;;26.68;40.35;100017.38;4495460;31;34255;-82
2022/07/21 06:01:09;;;;;;;13.57;4.07;;;;;;;26.90;40.95;100016.03;4495029;31;32983;-80
2022/07/21 06:04:00;;;;;;;9.80;3.97;;;;;;;26.88;41.08;100017.63;4486333;31;34590;-83
2022/07/21 06:06:48;;;;;;;12.85;4.12;;;;;;;27.16;39.27;100016.66;4499496;31;35028;-81
2022/07/21 06:09:40;;;;;;;13.05;4.87;;;;;;;27.46;39.19;100012.34;4500016;31;34755;-81
2022/07/21 06:12:31;;;;;;;9.60;4.12;;;;;;;27.24;38.68;100006.94;4501795;31;35311;-81
2022/07/21 06:15:21;;;;;;;7.70;4.37;;;;;;;27.44;38.81;100014.78;4502942;31;34710;-81
2022/07/21 06:18:08;;;;;;;11.98;4.70;;;;;;;27.83;40.75;100011.56;4503713;31;36372;-81
2022/07/21 06:20:55;;;;;;;14.98;4.50;;;;;;;27.93;38.30;100009.87;4501201;31;34670;-83
2022/07/21 06:23:41;;;;;;;10.45;4.62;;;;;;;28.24;39.01;100011.47;4495085;31;35033;-82
2022/07/21 06:26:29;;;;;;;9.48;5.03;;;;;;;27.96;37.77;100018.25;4484868;31;34663;-83
2022/07/21 06:29:19;;;;;;;9.23;3.78;;;;;;;27.87;38.07;100017.19;4492426;31;34933;-83
2022/07/21 06:32:07;;;;;;;11.73;5.30;;;;;;;28.34;37.12;100018.19;4481795;31;35940;-82
2022/07/21 06:34:57;;;;;;;9.68;4.40;;;;;;;28.18;36.61;100013.16;4494391;31;34062;-82
2022/07/21 06:37:47;;;;;;;8.90;4.22;;;;;;;28.60;34.84;100007.38;4481997;31;34360;-80
2022/07/21 06:40:40;;;;;;;6.45;4.25;;;;;;;28.83;34.10;100003.81;4470852;31;34912;-77
2022/07/21 06:43:30;;;;;;;6.07;4.22;;;;;;;29.00;34.14;100005.56;4478157;31;34666;-77
2022/07/21 06:46:19;;;;;;;8.73;4.45;;;;;;;28.91;33.41;100005.28;4480697;31;34641;-77
2022/07/21 06:49:08;;;;;;;6.57;4.15;;;;;;;29.08;33.46;100009.87;4491162;31;34430;-76
2022/07/21 06:51:55;;;;;;;8.45;4.80;;;;;;;29.28;32.78;100003.50;4481478;31;34970;-77
2022/07/21 06:54:43;;;;;;;8.90;4.37;;;;;;;29.16;33.07;99998.47;4495626;31;35101;-78
2022/07/21 06:57:32;;;;;;;9.10;4.57;;;;;;;29.82;33.08;100006.13;4495468;31;34227;-80
2022/07/21 07:00:26;;;;;;;6.80;4.55;;;;;;;29.63;32.09;100006.91;4481923;31;34353;-80
2022/07/21 07:03:16;;;;;;;8.80;3.83;;;;;;;30.00;31.13;100000.94;4492579;31;34622;-81
2022/07/21 07:06:05;;;;;;;9.63;4.32;;;;;;;30.14;31.73;100004.69;4483328;31;34866;-81
2022/07/21 07:08:56;;;;;;;14.80;4.35;;;;;;;29.62;31.86;100016.59;4495131;31;35509;-81
2022/07/21 07:11:43;;;;;;;7.40;4.40;;;;;;;29.71;31.95;100011.19;4496058;31;35581;-79
2022/07/21 07:14:57;;;;;;;7.20;4.53;;;;;;;29.98;31.53;100011.88;4483329;31;34504;-78
2022/07/21 07:17:56;;;;;;;8.93;4.70;;;;;;;30.19;32.26;100004.16;4475080;31;35516;-79
2022/07/21 07:20:50;;;;;;;7.40;4.12;;;;;;;29.96;31.00;100011.50;4475983;31;35034;-79
2022/07/21 07:23:47;;;;;;;7.47;4.20;;;;;;;30.35;32.19;100009.13;4490428;31;35244;-79
2022/07/21 07:26:35;;;;;;;10.55;4.47;;;;;;;29.76;31.37;100008.66;4494534;31;35720;-79
2022/07/21 07:29:21;;;;;;;9.50;3.95;;;;;;;30.38;31.55;100011.84;4476907;31;34314;-78
2022/07/21 07:32:13;;;;;;;10.87;3.87;;;;;;;30.79;31.23;100007.69;4492889;31;34594;-80
2022/07/21 07:35:00;;;;;;;9.95;4.30;;;;;;;31.07;31.25;100014.69;4494817;31;35539;-81
2022/07/21 07:37:48;;;;;;;9.60;4.15;;;;;;;31.33;29.78;100004.31;4482041;31;34676;-80
2022/07/21 07:40:36;;;;;;;9.18;4.45;;;;;;;30.98;29.65;100008.06;4485167;31;34691;-80
2022/07/21 07:43:23;;;;;;;10.48;4.68;;;;;;;31.03;30.05;99999.06;4491067;31;34767;-79
2022/07/21 07:46:19;;;;;;;8.25;4.50;;;;;;;31.18;29.45;99997.44;4494826;31;34688;-78
2022/07/21 07:49:08;;;;;;;;;;;;;;;31.22;29.41;99997.34;4479506;31;36194;-80
2022/07/21 07:52:17;;;;;;;8.20;4.37;;;;;;;31.73;28.94;99989.91;4485444;31;34918;-79
2022/07/21 07:55:10;;;;;;;6.12;3.80;;;;;;;31.32;29.33;99996.28;4493507;31;34351;-80
2022/07/21 07:57:58;;;;;;;9.25;4.93;;;;;;;31.54;29.02;99985.22;4483882;31;35609;-78
2022/07/21 08:00:46;;;;;;;10.40;4.20;;;;;;;31.13;28.97;99984.63;4480938;31;36527;-79
2022/07/21 08:03:56;;;;;;;9.02;4.87;;;;;;;31.74;29.64;99994.34;4489277;31;34455;-79
2022/07/21 08:06:44;;;;;;;7.72;3.70;;;;;;;32.12;29.05;100001.41;4484650;31;34625;-78
2022/07/21 08:09:32;;;;;;;7.95;3.92;;;;;;;31.15;29.23;99998.34;4490911;31;35721;-79
2022/07/21 08:12:19;;;;;;;8.20;4.60;;;;;;;31.95;29.09;99998.63;4487530;31;34570;-79
2022/07/21 08:15:08;;;;;;;9.73;4.12;;;;;;;32.26;28.22;99981.91;4492109;31;34641;-79
2022/07/21 08:17:56;;;;;;;7.87;4.37;;;;;;;32.42;27.97;99998.06;4492120;31;34107;-79
2022/07/21 08:20:45;;;;;;;10.77;4.40;;;;;;;32.91;28.58;99994.09;4490166;31;34445;-78
2022/07/21 08:23:37;;;;;;;9.20;5.15;;;;;;;32.86;28.40;99991.81;4493171;31;34430;-78
2022/07/21 08:26:24;;;;;;;8.90;4.62;;;;;;;33.06;26.82;99986.72;4494627;31;34319;-79
2022/07/21 08:29:13;;;;;;;6.65;4.40;;;;;;;32.85;25.20;99978.91;4477662;31;33492;-80
2022/07/21 08:32:01;;;;;;;6.75;3.95;;;;;;;33.52;26.90;99990.00;4489871;31;34589;-78
2022/07/21 08:34:50;;;;;;;10.15;4.30;;;;;;;33.58;26.16;99979.66;4490894;31;35078;-79
2022/07/21 08:37:40;;;;;;;9.90;4.43;;;;;;;33.99;26.14;99974.88;4494910;31;33848;-79
2022/07/21 08:40:36;;;;;;;17.92;4.95;;;;;;;33.68;25.37;99962.69;4484138;31;34694;-79
2022/07/21 08:43:27;;;;;;;9.30;4.28;;;;;;;33.48;25.56;99972.28;4481299;31;34691;-80
2022/07/21 08:46:22;;;;;;;7.95;4.20;;;;;;;33.66;24.02;99968.03;4484156;31;34904;-80
2022/07/21 08:49:16;;;;;;;11.90;5.18;;;;;;;34.23;26.24;99968.72;4485385;31;34195;-77
2022/07/21 08:52:06;;;;;;;11.55;4.47;;;;;;;34.08;24.85;99964.88;4495705;31;34244;-80
2022/07/21 08:54:56;;;;;;;7.00;4.00;;;;;;;34.25;25.22;99969.06;4480584;31;34107;-79
2022/07/21 08:57:43;;;;;;;7.05;4.22;;;;;;;34.05;24.48;99966.59;4494825;31;35135;-79
2022/07/21 09:00:34;;;;;;;7.80;4.15;;;;;;;34.26;24.77;99964.94;4494359;31;34798;-78
2022/07/21 09:03:34;;;;;;;9.52;4.72;;;;;;;34.17;23.61;99971.37;4495649;31;34409;-81
2022/07/21 09:06:25;;;;;;;11.38;4.18;;;;;;;34.82;22.42;99968.84;4495308;31;35133;-80
2022/07/21 09:09:22;;;;;;;7.55;4.57;;;;;;;34.98;23.87;99957.19;4496316;31;36005;-81
2022/07/21 09:12:09;;;;;;;6.50;4.53;;;;;;;35.28;24.76;99963.25;4493526;31;34678;-80
2022/07/21 09:15:18;;;;;;;11.50;4.75;;;;;;;35.21;24.66;99964.34;4495479;31;34736;-78
2022/07/21 09:18:16;;;;;;;8.00;4.50;;;;;;;34.78;23.43;99954.75;4495517;31;35569;-79
2022/07/21 09:21:06;;;;;;;9.18;4.57;;;;;;;33.66;24.79;99960.28;4484800;31;35086;-79
2022/07/21 09:24:33;;;;;;;6.62;4.30;;;;;;;34.10;24.97;99959.47;4494810;31;35097;-80
2022/07/21 09:27:24;;;;;;;7.57;4.53;;;;;;;35.21;23.71;99958.66;4479327;31;35023;-80
2022/07/21 09:30:19;;;;;;;8.63;4.87;;;;;;;35.23;24.02;99950.41;4491281;31;34238;-80
2022/07/21 09:33:20;;;;;;;10.43;4.72;;;;;;;35.09;23.41;99945.34;4491194;31;36032;-83
2022/07/21 09:36:12;;;;;;;7.93;4.93;;;;;;;34.86;23.08;99944.62;4495243;31;35471;-81
2022/07/21 09:39:03;;;;;;;10.10;4.57;;;;;;;35.03;23.60;99944.34;4480990;31;34121;-80
2022/07/21 09:41:51;;;;;;;14.68;4.95;;;;;;;35.07;22.73;99936.50;4495872;31;34634;-80
2022/07/21 09:45:06;;;;;;;13.50;4.40;;;;;;;35.57;23.47;99940.00;4489989;31;34568;-83
2022/07/21 09:47:59;;;;;;;10.05;4.32;;;;;;;34.26;22.87;99928.75;4488644;31;34994;-81
2022/07/21 09:51:25;;;;;;;6.28;4.30;;;;;;;34.67;21.79;99931.66;4490456;31;34728;-81
2022/07/21 09:54:17;;;;;;;6.35;4.37;;;;;;;35.51;21.13;99927.63;4486366;31;34625;-82
2022/07/21 09:57:08;;;;;;;6.45;4.32;;;;;;;34.53;22.63;99915.13;4492595;31;33669;-78
2022/07/21 10:00:06;;;;;;;7.53;4.97;;;;;;;34.96;22.79;99919.84;4491119;31;34471;-81
2022/07/21 10:03:04;;;;;;;7.53;4.37;;;;;;;34.82;22.14;99924.09;4482798;31;35323;-80
2022/07/21 10:05:54;;;;;;;8.18;3.90;;;;;;;34.30;22.57;99922.97;4482305;31;35574;-80
2022/07/21 10:08:43;;;;;;;7.55;4.20;;;;;;;34.99;21.97;99918.09;4483436;31;35047;-82
2022/07/21 10:11:32;;;;;;;9.93;4.75;;;;;;;35.21;22.59;99910.25;4490597;31;35241;-80
2022/07/21 10:14:22;;;;;;;11.23;4.35;;;;;;;35.73;20.83;99910.37;4488768;31;34341;-81
2022/07/21 10:17:09;;;;;;;7.28;4.60;;;;;;;35.58;21.55;99899.63;4483407;31;34660;-81
2022/07/21 10:20:08;;;;;;;;;;;;;;;35.44;20.76;99905.16;4495460;31;35040;-82
2022/07/21 10:23:44;;;;;;;7.15;4.10;;;;;;;35.93;21.14;99898.44;4481816;31;34763;-80
2022/07/21 10:26:35;;;;;;;8.30;4.45;;;;;;;36.23;21.07;99905.97;4489721;31;34368;-80
2022/07/21 10:29:37;;;;;;;11.85;4.93;;;;;;;36.72;21.03;99892.59;4486803;31;34573;-79
2022/07/21 10:32:34;;;;;;;9.45;4.35;;;;;;;37.08;20.51;99888.69;4464630;32;34863;-81
2022/07/21 10:35:26;;;;;;;11.75;4.53;;;;;;;37.62;20.61;99885.06;4467054;31;34515;-81
2022/07/21 10:38:34;;;;;;;8.32;4.03;;;;;;;37.65;19.00;99878.34;4480663;32;33912;-81
2022/07/21 10:41:37;;;;;;;7.93;3.97;;;;;;;38.18;19.49;99874.59;4479726;32;34897;-81
2022/07/21 10:44:30;;;;;;;7.25;4.05;;;;;;;37.97;19.37;99871.66;4475237;31;34656;-82
2022/07/21 10:47:25;;;;;;;11.40;4.45;;;;;;;38.34;19.18;99868.34;4478547;31;34257;-82
2022/07/21 10:50:30;;;;;;;7.32;4.45;;;;;;;38.57;19.38;99883.00;4468658;32;33131;-81
2022/07/21 10:53:19;;;;;;;7.57;4.37;;;;;;;39.03;18.89;99867.97;4462937;31;34159;-80
2022/07/21 10:56:07;;;;;;;8.50;4.30;;;;;;;38.95;19.94;99867.62;4477038;31;34969;-82
2022/07/21 10:58:55;;;;;;;9.05;4.10;;;;;;;39.53;17.29;99870.63;4456126;32;34797;-81
2022/07/21 11:01:43;;;;;;;6.80;3.60;;;;;;;37.73;18.96;99868.09;4478021;31;33657;-82
2022/07/21 11:05:19;;;;;;;6.05;3.30;;;;;;;38.11;17.83;99860.66;4468358;31;34514;-80
2022/07/21 11:08:13;;;;;;;5.32;3.65;;;;;;;36.97;19.00;99859.06;4473473;31;35043;-79
2022/07/21 11:11:20;;;;;;;7.53;4.10;;;;;;;37.68;18.65;99851.63;4455858;32;34624;-80
2022/07/21 11:14:11;;;;;;;5.82;3.65;;;;;;;38.52;17.73;99855.06;4480439;32;34238;-78
2022/07/21 11:17:08;;;;;;;6.90;3.60;;;;;;;37.80;18.61;99844.84;4467673;32;34541;-77
2022/07/21 11:19:57;;;;;;;7.40;3.78;;;;;;;39.00;18.12;99840.34;4479772;31;35199;-77
2022/07/21 11:22:54;;;;;;;9.57;3.87;;;;;;;37.66;17.22;99846.41;4482384;32;34622;-76
2022/07/21 11:25:49;;;;;;;7.28;3.53;;;;;;;37.10;18.04;99837.56;4483164;32;34130;-77
2022/07/21 11:28:36;;;;;;;7.20;3.30;;;;;;;37.89;17.38;99836.13;4470334;32;477165;-77
2022/07/21 11:31:27;;;;;;;17.87;4.32;;;;;;;38.67;17.94;99824.28;4486017;31;34946;-77
2022/07/21 11:34:19;;;;;;;8.77;3.58;;;;;;;38.61;17.97;99826.31;4500977;31;35563;-76
2022/07/21 11:37:19;;;;;;;7.22;3.35;;;;;;;37.94;17.61;99824.03;4491450;31;34216;-78
2022/07/21 11:40:23;;;;;;;7.60;3.55;;;;;;;38.88;18.27;99819.34;4501542;31;34628;-76
2022/07/21 11:43:12;;;;;;;9.70;4.10;;;;;;;38.68;17.60;99820.13;4500886;31;36060;-76
2022/07/21 11:46:00;;;;;;;7.60;4.05;;;;;;;38.32;18.63;99815.75;4489528;31;34618;-76
2022/07/21 11:49:06;;;;;;;10.07;3.92;;;;;;;39.02;18.23;99817.69;4487670;31;35000;-82
2022/07/21 11:51:59;;;;;;;7.80;3.22;;;;;;;38.24;18.23;99812.50;4492795;31;34607;-80
2022/07/21 11:54:53;;;;;;;7.30;3.10;;;;;;;38.48;17.11;99800.88;4492525;31;35010;-81
2022/07/21 11:57:43;;;;;;;7.03;3.30;;;;;;;38.50;15.80;99791.81;4494172;31;35715;-81
2022/07/21 12:00:37;;;;;;;7.60;3.50;;;;;;;38.32;15.78;99793.63;4481070;31;34918;-80
2022/07/21 12:03:27;;;;;;;3.97;2.50;;;;;;;38.34;16.78;99799.66;4493491;31;34139;-80
2022/07/21 12:06:14;;;;;;;5.22;3.12;;;;;;;38.10;17.35;99791.25;4489301;31;35026;-82
2022/07/21 12:09:14;;;;;;;4.75;2.97;;;;;;;39.34;15.90;99790.72;4479762;31;33580;-83
2022/07/21 12:12:07;;;;;;;8.18;2.70;;;;;;;39.78;16.17;99788.75;4480802;31;33744;-82
2022/07/21 12:14:58;;;;;;;8.70;3.35;;;;;;;40.26;15.34;99775.78;4485125;31;34289;-83
2022/07/21 12:18:25;;;;;;;5.37;2.62;;;;;;;38.56;15.59;99784.06;4489792;31;35657;-84
2022/07/21 12:21:12;;;;;;;6.78;2.75;;;;;;;38.43;16.15;99768.06;4494509;31;33488;-82
2022/07/21 12:24:00;;;;;;;4.90;2.75;;;;;;;38.33;15.74;99772.31;4489233;31;35115;-85
2022/07/21 12:26:47;;;;;;;6.10;2.53;;;;;;;37.49;16.29;99774.69;4483513;31;34592;-84
2022/07/21 12:29:36;;;;;;;4.55;2.92;;;;;;;37.74;16.27;99767.56;4490087;31;34714;-83
2022/07/21 12:36:08;;;;;;;9.52;3.35;;;;;;;38.26;16.46;99767.03;4483031;31;34289;-85
2022/07/21 12:38:57;;;;;;;5.87;3.20;;;;;;;39.14;15.40;99762.09;4480747;31;34604;-86
2022/07/21 12:41:45;;;;;;;5.25;3.08;;;;;;;38.56;15.57;99758.31;4478444;31;33575;-84
2022/07/21 12:44:33;;;;;;;5.18;2.97;;;;;;;38.57;15.13;99757.81;4474112;31;34570;-84
2022/07/21 12:47:26;;;;;;;7.43;3.17;;;;;;;38.30;15.49;99755.34;4487030;31;35155;-82
2022/07/21 12:50:14;;;;;;;8.02;3.22;;;;;;;38.61;15.53;99751.88;4481187;31;35494;-83
2022/07/21 12:53:13;;;;;;;7.37;3.00;;;;;;;39.09;15.23;99740.69;4476494;31;35833;-83
2022/07/21 12:56:08;;;;;;;5.50;2.92;;;;;;;38.25;15.61;99748.25;4492587;31;35385;-83
2022/07/21 12:58:56;;;;;;;;;;;;;;;39.18;14.98;99741.81;4492978;31;34197;-86
2022/07/21 13:01:58;;;;;;;7.60;2.97;;;;;;;39.34;14.14;99739.12;4489828;31;34698;-86
2022/07/21 13:04:45;;;;;;;9.55;3.30;;;;;;;39.39;14.71;99723.25;4492887;31;34066;-84
2022/07/21 13:07:34;;;;;;;7.80;2.80;;;;;;;38.75;14.96;99730.16;4489944;31;34084;-84
2022/07/21 13:10:32;;;;;;;5.80;3.10;;;;;;;39.21;14.83;99735.06;4472444;31;34112;-84
2022/07/21 13:16:32;;;;;;;6.53;3.12;;;;;;;39.99;14.17;99720.56;4496380;31;34899;-84
2022/07/21 13:19:20;;;;;;;4.87;2.90;;;;;;;39.93;14.55;99719.75;4487613;31;34756;-81
2022/07/21 13:22:10;;;;;;;5.55;2.90;;;;;;;40.31;13.51;99714.75;4495760;31;35097;-84
2022/07/21 13:25:02;;;;;;;5.90;3.12;;;;;;;39.88;14.07;99712.69;4499299;31;35236;-86
2022/07/21 13:27:52;;;;;;;9.95;3.87;;;;;;;39.68;15.18;99710.72;4493707;31;36130;-83
2022/07/21 13:30:45;;;;;;;5.45;3.62;;;;;;;39.41;15.39;99714.16;4483678;31;34640;-81
2022/07/21 13:33:37;;;;;;;10.73;4.07;;;;;;;39.83;15.82;99706.91;4493177;31;33738;-84